Time;durP1;ratioP1;P1;durP2;ratioP2;P2;SDS_P1;SDS_P2;PMS_P1;PMS_P2;Temp;Humidity;BMP_temperature;BMP_pressure;BME280_temperature;BME280_humidity;BME280_pressure;Samples;Min_cycle;Max_cycle;Signal;HPM_P1;HPM_P2
2023/04/12 00:00:10;;;;;;;13.02;4.97;;;;;;;-144.87;100.00;61487.56;5025576;28;20042;-78
2023/04/12 00:02:37;;;;;;;16.80;4.20;;;;;;;-144.87;100.00;61487.56;5025131;28;20041;-77
2023/04/12 00:05:03;;;;;;;19.75;4.53;;;;;;;-144.87;100.00;61487.56;5024654;28;20029;-77
2023/04/12 00:07:29;;;;;;;19.27;4.40;;;;;;;-144.87;100.00;61487.56;5004691;28;20767;-78
2023/04/12 00:09:56;;;;;;;13.45;4.75;;;;;;;-144.87;100.00;61487.56;5007075;28;20038;-75
2023/04/12 00:12:23;;;;;;;15.52;4.88;;;;;;;-144.87;100.00;61487.56;5012632;28;20068;-76
2023/04/12 00:14:49;;;;;;;17.55;4.47;;;;;;;-144.87;100.00;61487.56;5026162;28;20583;-78
2023/04/12 00:17:17;;;;;;;18.08;4.88;;;;;;;-144.87;100.00;61487.56;5030947;28;20094;-77
2023/04/12 00:19:44;;;;;;;13.65;4.60;;;;;;;-144.87;100.00;61487.56;5030863;28;20426;-78
2023/04/12 00:22:11;;;;;;;12.98;4.53;;;;;;;-144.87;100.00;61487.56;5033601;28;20064;-79
2023/04/12 00:24:39;;;;;;;12.65;4.72;;;;;;;-144.87;100.00;61487.56;5017725;28;20045;-81
2023/04/12 00:27:06;;;;;;;15.48;3.90;;;;;;;-144.87;100.00;61487.56;5025427;28;20441;-78
2023/04/12 00:29:33;;;;;;;11.55;5.35;;;;;;;-144.87;100.00;61487.56;5026050;28;20037;-79
2023/04/12 00:32:00;;;;;;;17.48;4.57;;;;;;;-144.87;100.00;61487.56;5016698;28;20033;-76
2023/04/12 00:34:27;;;;;;;15.25;4.70;;;;;;;-144.87;100.00;61487.56;5020198;28;20090;-77
2023/04/12 00:36:54;;;;;;;13.90;4.28;;;;;;;-144.87;100.00;61487.56;5009249;28;20513;-76
2023/04/12 00:39:21;;;;;;;10.00;3.63;;;;;;;-144.87;100.00;61487.56;5028564;28;20037;-74
2023/04/12 00:41:48;;;;;;;16.02;4.10;;;;;;;-144.87;100.00;61487.56;5009050;28;20064;-75
2023/04/12 00:44:16;;;;;;;11.27;3.85;;;;;;;-144.87;100.00;61487.56;5014253;28;20029;-76
2023/04/12 00:46:44;;;;;;;12.20;3.60;;;;;;;-144.87;100.00;61487.56;5005223;28;20033;-76
2023/04/12 00:49:11;;;;;;;11.25;3.38;;;;;;;-144.87;100.00;61487.56;5006955;28;20406;-74
2023/04/12 00:51:38;;;;;;;10.13;2.97;;;;;;;-144.87;100.00;61487.56;5030389;28;20049;-76
2023/04/12 00:54:06;;;;;;;11.23;4.20;;;;;;;-144.87;100.00;61487.56;5028845;28;20083;-78
2023/04/12 00:56:33;;;;;;;5.55;3.25;;;;;;;-144.87;100.00;61487.56;5027912;28;20105;-76
2023/04/12 00:59:00;;;;;;;8.82;3.20;;;;;;;-144.87;100.00;61487.56;5028856;28;20116;-76
2023/04/12 01:01:27;;;;;;;8.57;2.90;;;;;;;-144.87;100.00;61487.56;5011698;28;20030;-77
2023/04/12 01:03:59;;;;;;;9.02;3.05;;;;;;;-144.87;100.00;61487.56;5025359;28;20030;-79
2023/04/12 01:06:40;;;;;;;9.80;3.00;;;;;;;-144.87;100.00;61487.56;5027070;28;20040;-74
2023/04/12 01:09:22;;;;;;;9.68;2.97;;;;;;;-144.87;100.00;61487.56;5009672;28;20083;-77
2023/04/12 01:11:57;;;;;;;12.40;4.38;;;;;;;-144.87;100.00;61487.56;5011830;28;20498;-77
2023/04/12 01:14:39;;;;;;;6.40;2.85;;;;;;;-144.87;100.00;61487.56;5029981;28;20030;-78
2023/04/12 01:17:07;;;;;;;11.48;3.13;;;;;;;-144.87;100.00;61487.56;5024019;28;20029;-78
2023/04/12 01:20:12;;;;;;;7.25;3.05;;;;;;;-144.87;100.00;61487.56;5005046;28;20037;-76
2023/04/12 01:22:51;;;;;;;7.47;3.00;;;;;;;-144.87;100.00;61487.56;4996183;28;20044;-78
2023/04/12 01:25:38;;;;;;;7.18;2.53;;;;;;;-144.87;100.00;61487.56;5027631;28;20055;-77
2023/04/12 01:28:05;;;;;;;12.23;3.38;;;;;;;-144.87;100.00;61487.56;5008579;28;20094;-76
2023/04/12 01:30:32;;;;;;;12.50;3.03;;;;;;;-144.87;100.00;61487.56;5004631;28;20104;-78
2023/04/12 01:33:00;;;;;;;9.27;2.75;;;;;;;-144.87;100.00;61487.56;5027569;28;20037;-76
2023/04/12 01:35:31;;;;;;;10.18;3.00;;;;;;;-144.87;100.00;61487.56;5011226;28;20045;-77
2023/04/12 01:37:58;;;;;;;11.90;3.60;;;;;;;-144.87;100.00;61487.56;4996420;28;20264;-75
2023/04/12 01:40:26;;;;;;;7.20;3.05;;;;;;;-144.87;100.00;61487.56;5026702;28;20048;-74
2023/04/12 01:43:06;;;;;;;7.40;3.30;;;;;;;-144.87;100.00;61487.56;5014498;28;20486;-76
2023/04/12 01:45:33;;;;;;;11.45;3.40;;;;;;;-144.87;100.00;61487.56;5004672;28;20041;-75
2023/04/12 01:48:00;;;;;;;7.63;2.88;;;;;;;-144.87;100.00;61487.56;5004289;28;20037;-76
2023/04/12 01:50:36;;;;;;;11.10;3.42;;;;;;;-144.87;100.00;61487.56;5008135;28;20052;-77
2023/04/12 01:53:34;;;;;;;7.47;3.13;;;;;;;-144.87;100.00;61487.56;5027290;28;20525;-75
2023/04/12 01:56:06;;;;;;;5.85;2.90;;;;;;;-144.87;100.00;61487.56;5007362;28;20041;-76
2023/04/12 01:58:33;;;;;;;9.25;3.17;;;;;;;-144.87;100.00;61487.56;5000408;28;20029;-76
2023/04/12 02:01:00;;;;;;;7.93;3.13;;;;;;;-144.87;100.00;61487.56;5008943;28;20025;-74
2023/04/12 02:03:29;;;;;;;8.75;3.60;;;;;;;-144.87;100.00;61487.56;4995110;28;20390;-73
2023/04/12 02:05:58;;;;;;;8.55;3.08;;;;;;;-144.87;100.00;61487.56;5010103;28;20083;-74
2023/04/12 02:08:25;;;;;;;9.07;3.92;;;;;;;-144.87;100.00;61487.56;5025275;28;20068;-75
2023/04/12 02:10:51;;;;;;;6.20;2.65;;;;;;;-144.87;100.00;61487.56;5021466;28;20030;-75
2023/04/12 02:13:18;;;;;;;8.38;2.97;;;;;;;-144.87;100.00;61487.56;5027397;28;20044;-76
2023/04/12 02:15:44;;;;;;;7.90;3.55;;;;;;;-144.87;100.00;61487.56;5026095;28;20057;-74
2023/04/12 02:18:15;;;;;;;10.05;2.92;;;;;;;-144.87;100.00;61487.56;5008245;28;20406;-78
2023/04/12 02:20:42;;;;;;;;;;;;;;;-144.87;100.00;61487.56;5010807;28;20086;-75
2023/04/12 02:23:09;;;;;;;10.18;3.00;;;;;;;-144.87;100.00;61487.56;5027133;28;19925;-72
2023/04/12 02:25:37;;;;;;;11.73;2.70;;;;;;;-144.87;100.00;61487.56;4991454;28;20072;-75
2023/04/12 02:28:05;;;;;;;9.43;2.60;;;;;;;-144.87;100.00;61487.56;5005770;28;20037;-76
2023/04/12 02:30:32;;;;;;;7.07;3.20;;;;;;;-144.87;100.00;61487.56;5003784;28;20081;-76
2023/04/12 02:32:58;;;;;;;12.10;3.42;;;;;;;-144.87;100.00;61487.56;5006888;28;20044;-79
2023/04/12 02:35:31;;;;;;;9.55;2.70;;;;;;;-144.87;100.00;61487.56;5025106;28;20037;-75
2023/04/12 02:38:07;;;;;;;8.27;2.85;;;;;;;-144.87;100.00;61487.56;5007176;28;20042;-78
2023/04/12 02:40:39;;;;;;;6.15;2.70;;;;;;;-144.87;100.00;61487.56;5013393;28;20045;-78
2023/04/12 02:43:09;;;;;;;9.52;3.33;;;;;;;-144.87;100.00;61487.56;5011839;28;20487;-79
2023/04/12 02:45:39;;;;;;;11.23;4.15;;;;;;;-144.87;100.00;61487.56;5008402;28;20091;-77
2023/04/12 02:48:09;;;;;;;10.73;3.53;;;;;;;-144.87;100.00;61487.56;5008818;28;20045;-76
2023/04/12 02:50:37;;;;;;;6.97;2.70;;;;;;;-144.87;100.00;61487.56;5020359;28;20060;-76
2023/04/12 02:53:15;;;;;;;8.20;3.10;;;;;;;-144.87;100.00;61487.56;5015113;28;20041;-78
2023/04/12 02:55:45;;;;;;;6.65;3.10;;;;;;;-144.87;100.00;61487.56;4993421;28;20038;-79
2023/04/12 02:58:12;;;;;;;9.55;3.10;;;;;;;-144.87;100.00;61487.56;5006478;28;20526;-78
2023/04/12 03:00:46;;;;;;;8.93;3.88;;;;;;;-144.87;100.00;61487.56;5011265;28;20040;-80
2023/04/12 03:03:16;;;;;;;9.35;3.92;;;;;;;-144.87;100.00;61487.56;5004151;28;20458;-77
2023/04/12 03:05:46;;;;;;;10.85;3.90;;;;;;;-144.87;100.00;61487.56;5021293;28;20042;-78
2023/04/12 03:08:14;;;;;;;;;;;;;;;-144.87;100.00;61487.56;4993462;28;20034;-76
2023/04/12 03:10:49;;;;;;;9.80;3.50;;;;;;;-144.87;100.00;61487.56;4995186;28;19927;-83
2023/04/12 03:13:16;;;;;;;11.35;4.63;;;;;;;-144.87;100.00;61487.56;4993937;28;20037;-77
2023/04/12 03:15:48;;;;;;;11.18;3.80;;;;;;;-144.87;100.00;61487.56;5010947;28;20735;-75
2023/04/12 03:18:16;;;;;;;7.50;3.42;;;;;;;-144.87;100.00;61487.56;5007037;28;20033;-77
2023/04/12 03:20:48;;;;;;;11.63;3.95;;;;;;;-144.87;100.00;61487.56;5026455;28;20088;-75
2023/04/12 03:23:16;;;;;;;8.13;4.10;;;;;;;-144.87;100.00;61487.56;5008753;28;20393;-78
2023/04/12 03:25:46;;;;;;;9.40;4.75;;;;;;;-144.87;100.00;61487.56;5008758;28;20092;-77
2023/04/12 03:28:44;;;;;;;10.90;4.38;;;;;;;-144.87;100.00;61487.56;5000998;28;20042;-82
2023/04/12 03:31:11;;;;;;;12.55;4.70;;;;;;;-144.87;100.00;61487.56;5021089;28;20495;-80
2023/04/12 03:33:41;;;;;;;13.17;4.93;;;;;;;-144.87;100.00;61487.56;5008119;28;20049;-78
2023/04/12 03:36:17;;;;;;;13.35;4.65;;;;;;;-144.87;100.00;61487.56;4989788;28;20432;-80
2023/04/12 03:38:48;;;;;;;12.93;3.97;;;;;;;-144.87;100.00;61487.56;4992619;28;20095;-81
2023/04/12 03:41:15;;;;;;;8.32;3.70;;;;;;;-144.87;100.00;61487.56;4995408;28;20112;-78
2023/04/12 03:43:41;;;;;;;8.35;4.00;;;;;;;-144.87;100.00;61487.56;5004559;28;20041;-81
2023/04/12 03:46:16;;;;;;;10.50;3.58;;;;;;;-144.87;100.00;61487.56;5025105;28;20029;-84
2023/04/12 03:48:43;;;;;;;9.75;3.90;;;;;;;-144.87;100.00;61487.56;5030697;28;20026;-82
2023/04/12 03:51:11;;;;;;;10.45;4.13;;;;;;;-144.87;100.00;61487.56;5011256;28;20041;-82
2023/04/12 03:53:42;;;;;;;10.43;4.07;;;;;;;-144.87;100.00;61487.56;5012274;28;20517;-84
2023/04/12 03:56:13;;;;;;;9.65;4.65;;;;;;;-144.87;100.00;61487.56;5015329;28;20533;-81
2023/04/12 03:58:41;;;;;;;10.13;4.60;;;;;;;-144.87;100.00;61487.56;5014863;28;20029;-83
2023/04/12 04:01:08;;;;;;;11.77;4.63;;;;;;;-144.87;100.00;61487.56;5014691;28;20124;-82
2023/04/12 04:03:35;;;;;;;9.40;3.90;;;;;;;-144.87;100.00;61487.56;5016196;28;20037;-81
2023/04/12 04:06:16;;;;;;;11.95;4.47;;;;;;;-144.87;100.00;61487.56;5001269;28;20040;-79
2023/04/12 04:09:02;;;;;;;8.63;4.57;;;;;;;-144.87;100.00;61487.56;5011015;28;20139;-82
2023/04/12 04:11:32;;;;;;;8.07;3.92;;;;;;;-144.87;100.00;61487.56;5012427;28;20111;-82
2023/04/12 04:14:05;;;;;;;11.13;4.32;;;;;;;-144.87;100.00;61487.56;5013193;28;20028;-80
2023/04/12 04:16:32;;;;;;;9.20;4.20;;;;;;;-144.87;100.00;61487.56;5024253;28;20113;-81
2023/04/12 04:19:00;;;;;;;11.85;4.55;;;;;;;-144.87;100.00;61487.56;4999669;28;20354;-85
2023/04/12 04:21:29;;;;;;;12.82;4.65;;;;;;;-144.87;100.00;61487.56;5009962;28;20069;-81
2023/04/12 04:23:59;;;;;;;6.50;4.25;;;;;;;-144.87;100.00;61487.56;5026973;28;20506;-80
2023/04/12 04:26:32;;;;;;;8.32;4.93;;;;;;;-144.87;100.00;61487.56;5009737;28;20405;-83
2023/04/12 04:29:05;;;;;;;8.55;4.22;;;;;;;-144.87;100.00;61487.56;5009630;28;20033;-80
2023/04/12 04:31:37;;;;;;;9.55;4.50;;;;;;;-144.87;100.00;61487.56;5010160;28;20125;-79
2023/04/12 04:34:05;;;;;;;7.93;4.15;;;;;;;-144.87;100.00;61487.56;5014559;28;20037;-79
2023/04/12 04:36:36;;;;;;;10.32;4.68;;;;;;;-144.87;100.00;61487.56;5032540;28;20037;-74
2023/04/12 04:39:04;;;;;;;7.55;4.30;;;;;;;-144.87;100.00;61487.56;5029288;28;20164;-79
2023/04/12 04:41:40;;;;;;;8.18;4.25;;;;;;;-144.87;100.00;61487.56;5015667;28;20076;-79
2023/04/12 04:44:12;;;;;;;9.93;5.07;;;;;;;-144.87;100.00;61487.56;5011299;28;20041;-81
2023/04/12 04:46:47;;;;;;;6.75;4.38;;;;;;;-144.87;100.00;61487.56;5009889;28;20345;-77
2023/04/12 04:49:14;;;;;;;7.88;4.55;;;;;;;-144.87;100.00;61487.56;5031962;28;20060;-82
2023/04/12 04:51:40;;;;;;;7.25;3.95;;;;;;;-144.87;100.00;61487.56;5000998;28;20120;-77
2023/04/12 04:54:10;;;;;;;10.55;4.65;;;;;;;-144.87;100.00;61487.56;5015511;28;20466;-79
2023/04/12 04:56:39;;;;;;;9.47;4.43;;;;;;;-144.87;100.00;61487.56;4994989;28;20037;-81
2023/04/12 04:59:06;;;;;;;7.07;4.57;;;;;;;-144.87;100.00;61487.56;5009122;28;20106;-80
2023/04/12 05:01:35;;;;;;;6.93;4.60;;;;;;;-144.87;100.00;61487.56;5014123;28;20080;-79
2023/04/12 05:04:03;;;;;;;6.68;4.50;;;;;;;-144.87;100.00;61487.56;5016120;28;20530;-83
2023/04/12 05:06:29;;;;;;;9.85;4.90;;;;;;;-144.87;100.00;61487.56;4990424;28;20069;-82
2023/04/12 05:09:00;;;;;;;7.88;5.20;;;;;;;-144.87;100.00;61487.56;5013059;28;20047;-80
2023/04/12 05:11:27;;;;;;;8.13;5.97;;;;;;;-144.87;100.00;61487.56;5010851;28;20060;-84
2023/04/12 05:13:53;;;;;;;8.45;5.60;;;;;;;-144.87;100.00;61487.56;5023579;28;20033;-83
2023/04/12 05:16:20;;;;;;;11.60;6.05;;;;;;;-144.87;100.00;61487.56;5003614;28;20154;-84
2023/04/12 05:18:46;;;;;;;7.55;5.47;;;;;;;-144.87;100.00;61487.56;5010939;28;20029;-84
2023/04/12 05:21:12;;;;;;;9.48;6.00;;;;;;;-144.87;100.00;61487.56;4999240;28;20041;-80
2023/04/12 05:24:00;;;;;;;11.93;6.63;;;;;;;-144.87;100.00;61487.56;5009083;28;20061;-84
2023/04/12 05:26:26;;;;;;;11.07;6.43;;;;;;;-144.87;100.00;61487.56;5022801;28;20083;-80
2023/04/12 05:28:53;;;;;;;12.90;7.20;;;;;;;-144.87;100.00;61487.56;5027494;28;20029;-79
2023/04/12 05:31:21;;;;;;;11.38;7.32;;;;;;;-144.87;100.00;61487.56;4995123;28;20243;-84
2023/04/12 05:33:48;;;;;;;9.73;8.10;;;;;;;-144.87;100.00;61487.56;4995437;28;20112;-78
2023/04/12 05:36:16;;;;;;;12.10;7.85;;;;;;;-144.87;100.00;61487.56;5007361;28;20057;-81
2023/04/12 05:38:43;;;;;;;10.10;7.45;;;;;;;-144.87;100.00;61487.56;5007876;28;20489;-74
2023/04/12 05:41:12;;;;;;;11.80;8.50;;;;;;;-144.87;100.00;61487.56;5023345;28;20033;-83
2023/04/12 05:43:39;;;;;;;10.90;8.02;;;;;;;-144.87;100.00;61487.56;5014407;28;20025;-80
2023/04/12 05:46:07;;;;;;;11.77;7.10;;;;;;;-144.87;100.00;61487.56;5024705;28;20049;-78
2023/04/12 05:48:34;;;;;;;11.27;7.97;;;;;;;-144.87;100.00;61487.56;5006901;28;20140;-80
2023/04/12 05:51:03;;;;;;;9.23;7.30;;;;;;;-144.87;100.00;61487.56;5023931;28;20414;-77
2023/04/12 05:53:31;;;;;;;10.23;7.18;;;;;;;-144.87;100.00;61487.56;4994535;28;20041;-82
2023/04/12 05:56:01;;;;;;;11.52;7.93;;;;;;;-144.87;100.00;61487.56;5021915;28;20045;-81
2023/04/12 05:58:28;;;;;;;13.13;6.88;;;;;;;-144.87;100.00;61487.56;4997242;28;20068;-78
2023/04/12 06:00:55;;;;;;;15.75;7.45;;;;;;;-144.87;100.00;61487.56;5007197;28;20033;-80
2023/04/12 06:03:24;;;;;;;10.88;6.93;;;;;;;-144.87;100.00;61487.56;5008265;28;20033;-81
2023/04/12 06:05:51;;;;;;;12.57;7.53;;;;;;;-144.87;100.00;61487.56;5027746;28;20037;-80
2023/04/12 06:08:18;;;;;;;12.25;7.50;;;;;;;-144.87;100.00;61487.56;5008150;28;20045;-80
2023/04/12 06:10:45;;;;;;;12.40;6.95;;;;;;;-144.87;100.00;61487.56;5021134;28;20442;-83
2023/04/12 06:13:12;;;;;;;11.80;7.82;;;;;;;-144.87;100.00;61487.56;5010712;28;20087;-81
2023/04/12 06:15:42;;;;;;;14.57;7.70;;;;;;;-144.87;100.00;61487.56;5010986;28;20033;-80
2023/04/12 06:18:08;;;;;;;12.85;8.13;;;;;;;-144.87;100.00;61487.56;5023262;28;20124;-80
2023/04/12 06:20:39;;;;;;;12.40;7.93;;;;;;;-144.87;100.00;61487.56;5028358;28;20491;-79
2023/04/12 06:23:05;;;;;;;;;;;;;;;-144.87;100.00;61487.56;5030971;28;20112;-77
2023/04/12 06:25:32;;;;;;;;;;;;;;;-144.87;100.00;61487.56;5016223;28;19928;-78
2023/04/12 06:27:59;;;;;;;;;;;;;;;-144.87;100.00;61487.56;5003046;28;19921;-78
2023/04/12 06:30:26;;;;;;;;;;;;;;;-144.87;100.00;61487.56;4985492;28;19932;-81
2023/04/12 06:32:53;;;;;;;;;;;;;;;-144.87;100.00;61487.56;5025117;28;20562;-81
2023/04/12 06:35:21;;;;;;;;;;;;;;;-144.87;100.00;61487.56;5004621;28;19924;-78
2023/04/12 06:37:48;;;;;;;;;;;;;;;-144.87;100.00;61487.56;5007909;28;20382;-79
2023/04/12 06:40:14;;;;;;;;;;;;;;;-144.87;100.00;61487.56;5011638;28;20008;-79
2023/04/12 06:42:40;;;;;;;;;;;;;;;-144.87;100.00;61487.56;5039626;28;19932;-78
2023/04/12 06:45:09;;;;;;;;;;;;;;;-144.87;100.00;61487.56;5021367;28;20019;-79
2023/04/12 06:47:35;;;;;;;;;;;;;;;-144.87;100.00;61487.56;5015391;28;19979;-77
2023/04/12 06:50:01;;;;;;;;;;;;;;;-144.87;100.00;61487.56;5015874;28;20007;-78
2023/04/12 06:52:29;;;;;;;;;;;;;;;-144.87;100.00;61487.56;5028215;28;19920;-79
2023/04/12 06:55:14;;;;;;;;;;;;;;;-144.87;100.00;61487.56;5028267;28;19924;-79
2023/04/12 06:57:40;;;;;;;;;;;;;;;-144.87;100.00;61487.56;5013089;28;19917;-77
2023/04/12 07:00:07;;;;;;;;;;;;;;;-144.87;100.00;61487.56;5033004;28;20291;-79
2023/04/12 07:02:33;;;;;;;;;;;;;;;-144.87;100.00;61487.56;5030461;28;19924;-77
2023/04/12 07:04:59;;;;;;;;;;;;;;;-144.87;100.00;61487.56;5030252;28;19925;-78
2023/04/12 07:07:26;;;;;;;;;;;;;;;-144.87;100.00;61487.56;5026118;28;19916;-86
2023/04/12 07:09:52;;;;;;;;;;;;;;;-144.87;100.00;61487.56;5030469;28;19936;-82
2023/04/12 07:12:18;;;;;;;;;;;;;;;-144.87;100.00;61487.56;5044100;28;19947;-82
2023/04/12 07:14:44;;;;;;;;;;;;;;;-144.87;100.00;61487.56;5030785;28;19924;-78
2023/04/12 07:17:10;;;;;;;;;;;;;;;-144.87;100.00;61487.56;5026377;28;19917;-80
2023/04/12 07:19:38;;;;;;;;;;;;;;;-144.87;100.00;61487.56;5029759;28;20423;-81
2023/04/12 07:22:10;;;;;;;;;;;;;;;-144.87;100.00;61487.56;5014831;28;19917;-82
2023/04/12 07:24:36;;;;;;;;;;;;;;;-144.87;100.00;61487.56;5029691;28;19961;-79
2023/04/12 07:27:03;;;;;;;;;;;;;;;-144.87;100.00;61487.56;5031186;28;20385;-80
2023/04/12 07:56:05;;;;;;;37.80;9.27;;;;;;;9.41;100.00;99615.53;5083933;27;1394837;-79
2023/04/12 09:54:45;;;;;;;25.20;3.55;;;;;;;13.83;100.00;99600.22;4927532;22;1373593;-77
2023/04/12 10:02:50;;;;;;;22.07;4.27;;;;;;;14.28;100.00;99589.00;5018224;27;1398872;-78
2023/04/12 10:05:26;;;;;;;22.75;3.90;;;;;;;14.53;100.00;99592.97;5066940;28;20033;-83
2023/04/12 10:07:52;;;;;;;23.40;4.20;;;;;;;14.52;100.00;99593.97;5070092;28;20040;-80
2023/04/12 10:10:19;;;;;;;20.38;3.85;;;;;;;14.40;100.00;99592.38;5063208;28;20043;-78
2023/04/12 10:12:47;;;;;;;17.27;3.50;;;;;;;14.16;100.00;99590.09;5032364;28;20095;-79
2023/04/12 10:15:16;;;;;;;23.67;3.70;;;;;;;14.05;100.00;99590.22;5064054;28;20370;-78
2023/04/12 10:17:44;;;;;;;25.90;4.95;;;;;;;14.22;100.00;99589.56;5058844;28;20047;-78
2023/04/12 10:20:11;;;;;;;19.20;3.88;;;;;;;13.92;100.00;99590.47;5046466;28;20089;-78
2023/04/12 10:22:42;;;;;;;24.95;3.15;;;;;;;13.93;100.00;99590.34;5066255;28;20059;-78
2023/04/12 10:25:14;;;;;;;18.98;3.45;;;;;;;14.44;100.00;99587.59;5066426;28;20432;-78
2023/04/12 10:27:41;;;;;;;16.58;4.15;;;;;;;15.37;100.00;99572.63;5062262;28;20048;-79
2023/04/12 10:30:28;;;;;;;27.60;3.85;;;;;;;15.45;100.00;99594.28;5058849;28;20033;-79
2023/04/12 10:33:09;;;;;;;20.17;3.85;;;;;;;15.69;100.00;99590.19;5025311;28;20041;-80
2023/04/12 10:35:55;;;;;;;29.35;3.65;;;;;;;15.82;100.00;99590.75;5041707;28;20041;-78
2023/04/12 10:38:25;;;;;;;20.83;3.97;;;;;;;15.41;100.00;99603.59;5024344;28;20042;-78
2023/04/12 10:41:13;;;;;;;22.58;4.63;;;;;;;15.12;100.00;99596.47;5036060;28;20476;-78
2023/04/12 10:43:41;;;;;;;19.92;4.30;;;;;;;14.80;100.00;99593.25;5034945;28;20044;-78
2023/04/12 10:46:08;;;;;;;27.92;3.85;;;;;;;14.60;100.00;99595.97;5045632;28;20043;-78
2023/04/12 10:48:37;;;;;;;26.10;4.72;;;;;;;14.33;100.00;99600.19;5023906;28;20120;-77
2023/04/12 10:51:26;;;;;;;25.25;4.68;;;;;;;13.98;100.00;99594.44;5037554;28;20029;-77
2023/04/12 10:54:15;;;;;;;33.15;5.80;;;;;;;13.69;100.00;99587.16;5039779;28;20044;-77
2023/04/12 10:56:43;;;;;;;25.17;4.15;;;;;;;13.72;100.00;99592.28;5043792;28;20085;-77
2023/04/12 10:59:15;;;;;;;29.75;4.55;;;;;;;13.77;100.00;99584.63;5041353;28;20033;-78
2023/04/12 11:02:05;;;;;;;30.00;5.43;;;;;;;14.25;100.00;99589.28;5027879;28;20060;-77
2023/04/12 11:04:32;;;;;;;25.90;4.10;;;;;;;14.57;100.00;99593.56;5038318;28;20034;-78
2023/04/12 11:07:10;;;;;;;23.67;4.53;;;;;;;14.67;100.00;99590.91;5008601;28;20037;-78
2023/04/12 11:09:42;;;;;;;20.35;3.78;;;;;;;14.74;100.00;99589.31;5034909;28;20084;-78
2023/04/12 11:12:14;;;;;;;23.73;3.67;;;;;;;15.01;100.00;99593.94;5039623;28;20429;-78
2023/04/12 11:14:44;;;;;;;14.68;3.17;;;;;;;15.08;100.00;99588.88;5030324;28;20529;-77
2023/04/12 11:17:14;;;;;;;14.40;2.72;;;;;;;15.31;100.00;99592.03;5032854;28;20413;-78
2023/04/12 11:19:42;;;;;;;20.20;3.22;;;;;;;15.46;100.00;99593.25;5032827;28;20350;-78
2023/04/12 11:22:10;;;;;;;17.35;2.83;;;;;;;15.53;100.00;99598.91;5009158;28;20062;-79
2023/04/12 11:24:45;;;;;;;11.70;3.10;;;;;;;15.10;100.00;99606.53;5003345;28;20438;-78
2023/04/12 11:27:11;;;;;;;14.88;2.92;;;;;;;14.68;100.00;99596.09;5030733;28;20053;-78
2023/04/12 11:29:38;;;;;;;10.32;2.65;;;;;;;14.91;100.00;99607.41;5027595;28;20037;-78
2023/04/12 11:32:12;;;;;;;14.80;3.15;;;;;;;14.71;100.00;99606.56;5027744;28;20402;-77
2023/04/12 11:34:38;;;;;;;25.00;4.55;;;;;;;14.38;100.00;99604.28;5027725;28;20109;-79
2023/04/12 11:37:09;;;;;;;21.67;3.60;;;;;;;13.82;100.00;99603.88;5013519;28;20421;-77
2023/04/12 11:39:43;;;;;;;17.98;3.85;;;;;;;13.53;100.00;99609.97;5026858;28;20032;-77
2023/04/12 11:42:17;;;;;;;21.23;3.28;;;;;;;13.40;100.00;99608.47;5023385;28;20037;-77
2023/04/12 11:44:45;;;;;;;16.25;3.00;;;;;;;13.31;100.00;99599.44;5027543;28;20037;-78
2023/04/12 11:47:18;;;;;;;20.00;3.55;;;;;;;13.50;100.00;99604.03;5011056;28;20315;-77
2023/04/12 11:49:52;;;;;;;19.08;3.20;;;;;;;13.74;100.00;99601.03;5030086;28;20139;-78
2023/04/12 11:52:20;;;;;;;12.98;2.53;;;;;;;14.00;100.00;99605.88;5031880;28;20392;-78
2023/04/12 11:54:48;;;;;;;15.63;3.28;;;;;;;14.35;100.00;99611.63;4996283;28;20073;-78
2023/04/12 11:57:18;;;;;;;21.02;3.42;;;;;;;14.69;100.00;99602.34;5012180;28;20038;-79
2023/04/12 11:59:46;;;;;;;18.00;2.60;;;;;;;14.32;100.00;99611.03;5027456;28;20048;-79
2023/04/12 12:02:13;;;;;;;15.82;2.72;;;;;;;14.04;100.00;99610.00;5026789;28;20064;-78
2023/04/12 12:04:44;;;;;;;15.32;2.83;;;;;;;13.90;100.00;99612.09;4995286;28;20049;-77
2023/04/12 12:07:12;;;;;;;18.17;2.83;;;;;;;14.06;100.00;99610.72;4994796;28;20034;-78
2023/04/12 12:09:40;;;;;;;14.90;2.50;;;;;;;14.17;100.00;99620.50;5012791;28;20052;-78
2023/04/12 12:12:08;;;;;;;11.20;2.40;;;;;;;14.04;100.00;99615.38;4998183;28;20486;-79
2023/04/12 12:14:35;;;;;;;11.43;2.15;;;;;;;14.00;100.00;99619.28;5014076;28;20036;-79
2023/04/12 12:17:02;;;;;;;19.77;3.25;;;;;;;13.98;100.00;99619.47;5010313;28;20531;-80
2023/04/12 12:19:35;;;;;;;9.63;1.50;;;;;;;13.94;100.00;99608.16;4978457;28;20045;-83
2023/04/12 12:22:20;;;;;;;9.07;2.00;;;;;;;13.85;100.00;99625.06;5029715;28;20473;-78
2023/04/12 12:25:05;;;;;;;10.02;2.25;;;;;;;13.80;100.00;99616.56;4998255;28;20443;-79
2023/04/12 12:27:36;;;;;;;16.27;2.55;;;;;;;13.90;100.00;99617.47;5019265;28;20033;-79
2023/04/12 12:30:08;;;;;;;8.88;1.85;;;;;;;13.80;100.00;99616.56;5014056;28;20038;-78
2023/04/12 12:32:35;;;;;;;14.75;2.15;;;;;;;13.63;100.00;99618.06;5021924;28;20033;-78
2023/04/12 12:35:09;;;;;;;13.85;2.22;;;;;;;13.61;100.00;99627.22;5011101;28;20042;-78
2023/04/12 12:37:37;;;;;;;7.85;2.17;;;;;;;13.60;100.00;99628.19;4995502;28;20060;-77
2023/04/12 12:40:14;;;;;;;5.07;1.20;;;;;;;13.82;100.00;99629.84;5023100;28;20437;-77
2023/04/12 12:42:54;;;;;;;9.88;2.17;;;;;;;13.58;99.28;99634.53;5030375;28;20409;-77
2023/04/12 12:45:22;;;;;;;5.78;1.50;;;;;;;13.45;100.00;99631.22;5030537;28;20041;-78
2023/04/12 12:47:54;;;;;;;10.25;1.70;;;;;;;13.33;100.00;99633.16;5028640;28;20033;-78
2023/04/12 12:50:25;;;;;;;9.05;2.33;;;;;;;13.38;100.00;99641.66;5024735;28;20034;-77
2023/04/12 12:52:53;;;;;;;7.90;1.92;;;;;;;13.17;100.00;99646.97;5024742;28;20025;-80
2023/04/12 12:55:23;;;;;;;8.65;1.60;;;;;;;12.90;100.00;99630.59;5054530;28;20061;-86
2023/04/12 12:57:52;;;;;;;10.48;1.73;;;;;;;12.67;100.00;99648.56;5013550;28;20064;-78
2023/04/12 13:00:20;;;;;;;10.48;1.63;;;;;;;12.56;100.00;99657.47;5018108;28;20049;-78
2023/04/12 13:02:47;;;;;;;7.72;2.03;;;;;;;12.42;100.00;99653.28;5027202;28;20061;-79
2023/04/12 13:05:14;;;;;;;7.85;1.50;;;;;;;12.31;100.00;99638.09;5025904;28;20030;-78
2023/04/12 13:07:41;;;;;;;6.18;1.35;;;;;;;12.20;100.00;99627.41;5025280;28;20029;-79
2023/04/12 13:10:07;;;;;;;8.48;1.60;;;;;;;11.97;100.00;99643.50;4995347;28;20040;-78
2023/04/12 13:12:34;;;;;;;9.30;1.50;;;;;;;12.11;100.00;99642.38;5027332;28;20128;-78
2023/04/12 13:15:00;;;;;;;11.38;1.80;;;;;;;12.72;100.00;99638.31;5007620;28;20095;-79
2023/04/12 13:17:27;;;;;;;6.93;1.50;;;;;;;12.96;100.00;99638.09;5027698;28;20365;-78
2023/04/12 13:19:54;;;;;;;7.57;1.67;;;;;;;13.51;100.00;99633.41;5028606;28;20063;-79
2023/04/12 13:22:21;;;;;;;8.27;2.58;;;;;;;14.28;100.00;99639.16;5028633;28;20131;-78
2023/04/12 13:24:48;;;;;;;7.75;1.40;;;;;;;14.97;100.00;99643.63;5027659;28;20061;-78
2023/04/12 13:27:15;;;;;;;6.20;1.48;;;;;;;15.64;100.00;99635.53;5027672;28;20486;-78
2023/04/12 13:29:41;;;;;;;6.90;1.30;;;;;;;16.15;100.00;99644.97;5026391;28;20044;-78
2023/04/12 13:32:08;;;;;;;8.20;1.90;;;;;;;16.49;100.00;99649.72;5017681;28;20048;-78
2023/04/12 13:34:35;;;;;;;5.72;1.30;;;;;;;16.56;96.17;99645.41;5004762;28;20049;-77
2023/04/12 13:37:01;;;;;;;9.50;1.83;;;;;;;15.49;100.00;99644.09;5006408;28;20041;-77
2023/04/12 13:39:27;;;;;;;10.30;1.95;;;;;;;14.52;100.00;99645.00;5027404;28;20072;-77
2023/04/12 13:41:54;;;;;;;10.02;1.50;;;;;;;14.21;100.00;99641.53;5026420;28;20402;-78
2023/04/12 13:44:20;;;;;;;5.93;1.70;;;;;;;14.72;100.00;99629.78;5015675;28;20038;-79
2023/04/12 13:46:46;;;;;;;10.93;1.73;;;;;;;15.46;100.00;99630.06;4996344;28;20383;-77
2023/04/12 13:49:12;;;;;;;8.45;1.42;;;;;;;15.43;100.00;99627.66;5029214;28;20048;-78
2023/04/12 13:51:39;;;;;;;8.05;1.98;;;;;;;15.20;100.00;99629.84;5028433;28;20034;-78
2023/04/12 13:54:05;;;;;;;8.52;1.80;;;;;;;14.75;100.00;99623.25;5011912;28;20494;-78
2023/04/12 13:56:31;;;;;;;38.35;3.75;;;;;;;14.08;100.00;99630.22;5028864;28;20037;-79